Time;durP1;ratioP1;P1;durP2;ratioP2;P2;SDS_P1;SDS_P2;PMS_P1;PMS_P2;Temp;Humidity;BMP_temperature;BMP_pressure;BME280_temperature;BME280_humidity;BME280_pressure;Samples;Min_cycle;Max_cycle;Signal;HPM_P1;HPM_P2
2024/01/02 00:04:11;;;;;;;40.58;19.20;;;;;;;;;;10137428;28;20479;-71
2024/01/02 00:09:03;;;;;;;33.97;17.63;;;;;;;;;;10137295;28;20065;-71
2024/01/02 00:13:55;;;;;;;29.38;20.13;;;;;;;;;;10150778;28;20375;-71
2024/01/02 00:18:47;;;;;;;35.15;18.58;;;;;;;;;;10136821;28;20075;-71
2024/01/02 00:23:39;;;;;;;36.90;18.02;;;;;;;;;;10150307;28;20044;-71
2024/01/02 00:28:31;;;;;;;26.27;18.52;;;;;;;;;;10148824;28;20044;-71
2024/01/02 00:33:22;;;;;;;46.60;18.50;;;;;;;;;;10149461;28;20076;-71
2024/01/02 00:38:15;;;;;;;35.25;19.90;;;;;;;;;;10149212;28;20114;-71
2024/01/02 00:43:07;;;;;;;27.15;17.50;;;;;;;;;;10148433;28;20047;-72
2024/01/02 00:47:59;;;;;;;20.52;17.00;;;;;;;;;;10162204;28;20142;-72
2024/01/02 00:52:51;;;;;;;42.88;18.25;;;;;;;;;;10125462;28;20106;-71
2024/01/02 00:57:43;;;;;;;20.85;16.75;;;;;;;;;;10145969;28;20391;-72
2024/01/02 01:02:35;;;;;;;31.13;18.15;;;;;;;;;;10138568;28;20102;-72
2024/01/02 01:07:26;;;;;;;29.92;16.63;;;;;;;;;;10121683;28;20475;-71
2024/01/02 01:12:18;;;;;;;33.38;16.90;;;;;;;;;;10145389;28;20094;-72
2024/01/02 01:17:11;;;;;;;27.25;16.55;;;;;;;;;;10121949;28;20082;-72
2024/01/02 01:22:03;;;;;;;18.92;15.23;;;;;;;;;;10134054;28;20076;-72
2024/01/02 01:26:55;;;;;;;18.75;15.23;;;;;;;;;;10137880;28;20383;-71
2024/01/02 01:31:47;;;;;;;28.38;16.20;;;;;;;;;;10147236;28;20061;-72
2024/01/02 01:36:39;;;;;;;22.20;15.38;;;;;;;;;;10147248;28;20515;-71
2024/01/02 01:41:31;;;;;;;26.20;15.07;;;;;;;;;;10144409;28;20068;-72
2024/01/02 01:46:23;;;;;;;91.22;17.90;;;;;;;;;;10120581;28;20116;-72
2024/01/02 01:51:15;;;;;;;143.18;18.17;;;;;;;;;;10133508;28;20041;-71
2024/01/02 01:56:07;;;;;;;205.27;19.92;;;;;;;;;;10117633;28;20079;-72
2024/01/02 02:00:59;;;;;;;127.50;17.10;;;;;;;;;;10112123;28;20044;-72
2024/01/02 02:05:52;;;;;;;63.70;15.45;;;;;;;;;;10108037;28;20044;-72
2024/01/02 02:10:44;;;;;;;45.22;15.25;;;;;;;;;;10109529;28;20037;-72
2024/01/02 02:15:40;;;;;;;51.38;14.40;;;;;;;;;;10091417;28;20056;-72
2024/01/02 02:20:32;;;;;;;100.68;17.02;;;;;;;;;;10110638;28;20053;-72
2024/01/02 02:25:24;;;;;;;56.30;14.50;;;;;;;;;;10124272;28;20080;-71
2024/01/02 02:30:16;;;;;;;72.43;14.00;;;;;;;;;;10109220;28;20052;-71
2024/01/02 02:35:08;;;;;;;113.22;16.92;;;;;;;;;;10109143;28;20097;-72
2024/01/02 02:40:00;;;;;;;55.75;13.57;;;;;;;;;;10108410;28;20052;-72
2024/01/02 02:44:52;;;;;;;114.60;16.10;;;;;;;;;;10108751;28;20041;-72
2024/01/02 02:49:44;;;;;;;68.70;13.90;;;;;;;;;;10108449;28;20040;-72
2024/01/02 02:54:36;;;;;;;30.42;12.68;;;;;;;;;;10108729;28;20056;-72
2024/01/02 02:59:28;;;;;;;39.88;13.43;;;;;;;;;;10113488;28;20055;-71
2024/01/02 03:04:20;;;;;;;49.78;13.70;;;;;;;;;;10131841;28;20055;-72
2024/01/02 03:09:12;;;;;;;42.75;11.65;;;;;;;;;;10116404;28;20033;-72
2024/01/02 03:14:03;;;;;;;18.98;12.75;;;;;;;;;;10116369;28;20076;-71
2024/01/02 03:18:55;;;;;;;49.53;13.43;;;;;;;;;;10115766;28;20545;-71
2024/01/02 03:23:47;;;;;;;41.88;14.00;;;;;;;;;;10115488;28;20045;-72
2024/01/02 03:28:39;;;;;;;102.55;14.82;;;;;;;;;;10115800;28;20128;-71
2024/01/02 03:33:31;;;;;;;66.53;14.32;;;;;;;;;;10114792;28;20597;-71
2024/01/02 03:38:23;;;;;;;60.38;14.50;;;;;;;;;;10113727;28;20128;-72
2024/01/02 03:43:15;;;;;;;32.28;11.73;;;;;;;;;;10116086;28;20037;-71
2024/01/02 03:48:07;;;;;;;63.47;11.90;;;;;;;;;;10114323;28;20052;-72
2024/01/02 03:53:00;;;;;;;38.15;11.13;;;;;;;;;;10115552;28;20078;-70
2024/01/02 03:57:52;;;;;;;23.50;11.75;;;;;;;;;;10113481;28;20048;-71
2024/01/02 04:02:43;;;;;;;13.40;9.00;;;;;;;;;;10115129;28;20036;-71
2024/01/02 04:07:35;;;;;;;27.95;10.20;;;;;;;;;;10113663;28;20127;-70
2024/01/02 04:12:27;;;;;;;9.52;8.68;;;;;;;;;;10113098;28;20040;-70
2024/01/02 04:17:19;;;;;;;8.68;7.55;;;;;;;;;;10113415;28;20140;-71
2024/01/02 04:22:11;;;;;;;11.88;10.45;;;;;;;;;;10121898;28;20139;-71
2024/01/02 04:27:03;;;;;;;86.50;11.45;;;;;;;;;;10113504;28;20468;-71
2024/01/02 04:31:55;;;;;;;32.05;10.80;;;;;;;;;;10112815;28;20119;-70
2024/01/02 04:36:46;;;;;;;17.58;8.98;;;;;;;;;;10113343;28;20132;-71
2024/01/02 04:41:38;;;;;;;10.45;9.35;;;;;;;;;;10121153;28;20037;-71
2024/01/02 04:46:30;;;;;;;9.52;8.63;;;;;;;;;;10112334;28;20087;-71
2024/01/02 04:51:22;;;;;;;12.95;9.52;;;;;;;;;;10112720;28;20119;-71
2024/01/02 04:56:14;;;;;;;33.03;10.85;;;;;;;;;;10111627;28;20071;-71
2024/01/02 05:01:06;;;;;;;28.05;11.18;;;;;;;;;;10203491;27;20070;-70
2024/01/02 05:05:58;;;;;;;15.65;9.45;;;;;;;;;;10232230;27;20478;-70
2024/01/02 05:10:50;;;;;;;14.75;10.73;;;;;;;;;;10231531;27;20039;-70
2024/01/02 05:15:41;;;;;;;9.38;8.45;;;;;;;;;;10231900;27;20438;-71
2024/01/02 05:20:33;;;;;;;10.65;8.80;;;;;;;;;;10229486;27;20481;-70
2024/01/02 05:25:25;;;;;;;11.20;9.75;;;;;;;;;;10233109;27;20050;-71
2024/01/02 05:30:18;;;;;;;12.05;9.48;;;;;;;;;;10230396;27;20352;-70
2024/01/02 05:35:10;;;;;;;8.55;7.75;;;;;;;;;;10239976;27;20044;-70
2024/01/02 05:40:03;;;;;;;9.40;8.50;;;;;;;;;;10230724;27;20047;-71
2024/01/02 05:44:55;;;;;;;15.68;9.07;;;;;;;;;;10230440;27;20069;-71
2024/01/02 05:49:46;;;;;;;14.00;9.85;;;;;;;;;;10230418;27;20131;-71
2024/01/02 05:54:38;;;;;;;15.68;10.45;;;;;;;;;;10230662;27;20039;-71
2024/01/02 05:59:30;;;;;;;9.00;8.20;;;;;;;;;;10229980;27;20096;-71
2024/01/02 06:04:22;;;;;;;12.90;8.80;;;;;;;;;;10230389;27;20143;-70
2024/01/02 06:09:14;;;;;;;11.88;8.88;;;;;;;;;;10229143;27;20111;-71
2024/01/02 06:14:08;;;;;;;49.95;10.63;;;;;;;;;;10230256;27;20051;-70
2024/01/02 06:19:00;;;;;;;25.70;10.02;;;;;;;;;;10228674;27;20036;-71
2024/01/02 06:23:53;;;;;;;11.50;9.10;;;;;;;;;;10232374;27;20043;-70
2024/01/02 06:28:47;;;;;;;20.25;10.38;;;;;;;;;;10228062;27;20386;-71
2024/01/02 06:33:44;;;;;;;11.88;9.63;;;;;;;;;;10228375;27;20408;-70
2024/01/02 06:38:38;;;;;;;16.15;9.13;;;;;;;;;;10230288;28;20042;-71
2024/01/02 06:43:30;;;;;;;10.82;9.73;;;;;;;;;;10251846;28;20047;-70
2024/01/02 06:48:22;;;;;;;12.00;9.27;;;;;;;;;;10253485;28;20533;-70
2024/01/02 06:53:14;;;;;;;10.55;9.65;;;;;;;;;;10267079;28;20346;-71
2024/01/02 06:58:05;;;;;;;9.98;9.02;;;;;;;;;;10263957;27;20488;-70
2024/01/02 07:03:01;;;;;;;13.40;8.95;;;;;;;;;;10266171;28;20047;-71
2024/01/02 07:07:53;;;;;;;10.77;9.77;;;;;;;;;;10265646;28;20114;-71
2024/01/02 07:12:46;;;;;;;9.10;8.23;;;;;;;;;;10264174;28;20446;-73
2024/01/02 07:17:40;;;;;;;9.63;8.73;;;;;;;;;;10244910;28;20152;-71
2024/01/02 07:22:32;;;;;;;8.48;7.68;;;;;;;;;;10258109;27;20047;-72
2024/01/02 07:27:24;;;;;;;8.98;8.15;;;;;;;;;;10264090;28;20433;-71
2024/01/02 07:32:15;;;;;;;9.63;8.63;;;;;;;;;;10253413;28;20131;-73
2024/01/02 07:37:08;;;;;;;8.02;7.22;;;;;;;;;;10225567;28;20048;-71
2024/01/02 07:42:00;;;;;;;9.82;8.05;;;;;;;;;;10225322;28;20071;-71
2024/01/02 07:46:53;;;;;;;7.50;6.80;;;;;;;;;;10230226;27;20051;-72
2024/01/02 07:51:45;;;;;;;8.73;7.88;;;;;;;;;;10231963;27;20052;-71
2024/01/02 07:56:36;;;;;;;9.05;8.15;;;;;;;;;;10232758;27;20051;-71
2024/01/02 08:01:28;;;;;;;7.63;6.93;;;;;;;;;;10231915;27;20048;-73
2024/01/02 08:06:20;;;;;;;8.48;7.70;;;;;;;;;;10232176;27;20370;-73
2024/01/02 08:11:12;;;;;;;9.05;7.85;;;;;;;;;;10230730;27;20043;-71
2024/01/02 08:16:05;;;;;;;7.28;6.57;;;;;;;;;;10232056;27;20040;-71
2024/01/02 08:20:57;;;;;;;7.43;6.70;;;;;;;;;;10231137;27;20050;-71
2024/01/02 08:25:49;;;;;;;8.07;7.25;;;;;;;;;;10233716;27;20127;-71
2024/01/02 08:30:41;;;;;;;8.77;7.57;;;;;;;;;;10228623;27;20078;-73
2024/01/02 08:35:33;;;;;;;9.10;7.80;;;;;;;;;;10230366;27;20118;-73
2024/01/02 08:40:25;;;;;;;7.88;7.13;;;;;;;;;;10229703;27;20470;-71
2024/01/02 08:45:17;;;;;;;18.35;7.55;;;;;;;;;;10228795;27;20120;-71
2024/01/02 08:50:09;;;;;;;7.55;6.80;;;;;;;;;;10228616;27;20100;-71
2024/01/02 08:55:02;;;;;;;7.82;7.10;;;;;;;;;;10231739;27;20394;-72
2024/01/02 08:59:54;;;;;;;7.43;6.72;;;;;;;;;;10232811;27;20047;-74
2024/01/02 09:04:46;;;;;;;8.13;7.32;;;;;;;;;;10229300;27;20392;-72
2024/01/02 09:09:38;;;;;;;9.75;8.85;;;;;;;;;;10215173;27;20066;-72
2024/01/02 09:14:29;;;;;;;11.40;8.23;;;;;;;;;;10228762;27;21043;-72
2024/01/02 09:19:22;;;;;;;7.82;7.13;;;;;;;;;;10247416;27;20041;-72
2024/01/02 09:24:16;;;;;;;9.48;8.60;;;;;;;;;;10261094;27;20127;-72
2024/01/02 09:29:08;;;;;;;9.52;8.52;;;;;;;;;;10261447;27;20043;-72
2024/01/02 09:34:00;;;;;;;9.32;7.20;;;;;;;;;;10265538;27;20055;-72
2024/01/02 09:38:52;;;;;;;8.50;7.70;;;;;;;;;;10265095;27;20086;-72
2024/01/02 09:43:56;;;;;;;9.55;8.55;;;;;;;;;;10266208;27;20481;-72
2024/01/02 09:49:25;;;;;;;10.15;9.18;;;;;;;;;;10264809;27;20306;-72
2024/01/02 09:54:50;;;;;;;10.20;9.20;;;;;;;;;;10265031;27;20134;-72
2024/01/02 09:59:59;;;;;;;11.15;10.05;;;;;;;;;;10240212;27;20036;-72
2024/01/02 10:05:09;;;;;;;10.05;9.02;;;;;;;;;;10253988;27;20047;-72
2024/01/02 10:10:21;;;;;;;11.65;10.55;;;;;;;;;;10241071;27;20043;-72
2024/01/02 10:15:24;;;;;;;11.30;10.20;;;;;;;;;;10233555;27;20043;-72
2024/01/02 10:20:45;;;;;;;11.68;10.45;;;;;;;;;;10253032;27;20194;-72
2024/01/02 10:25:37;;;;;;;13.25;11.45;;;;;;;;;;10244256;27;20038;-74
2024/01/02 10:30:35;;;;;;;14.50;12.93;;;;;;;;;;10213333;27;20389;-72
2024/01/02 10:35:51;;;;;;;12.50;11.25;;;;;;;;;;10259514;27;20043;-72
2024/01/02 10:40:50;;;;;;;12.35;11.13;;;;;;;;;;10257297;27;20045;-72
2024/01/02 10:45:52;;;;;;;13.30;10.65;;;;;;;;;;10264033;28;20035;-73
2024/01/02 10:50:50;;;;;;;10.63;9.50;;;;;;;;;;10247185;28;20035;-72
2024/01/02 10:55:48;;;;;;;10.85;9.63;;;;;;;;;;10250660;28;20096;-72
2024/01/02 11:00:55;;;;;;;11.47;9.90;;;;;;;;;;10237605;28;20039;-72
2024/01/02 11:06:18;;;;;;;10.57;9.48;;;;;;;;;;10225703;28;20558;-72
2024/01/02 11:11:12;;;;;;;10.25;9.25;;;;;;;;;;10208834;28;20085;-72
2024/01/02 11:16:07;;;;;;;16.02;13.05;;;;;;;;;;10207645;28;20073;-72
2024/01/02 11:21:33;;;;;;;12.32;11.13;;;;;;;;;;10230021;27;20127;-73
2024/01/02 11:26:28;;;;;;;13.50;11.30;;;;;;;;;;10235619;27;20525;-73
2024/01/02 11:31:21;;;;;;;12.25;10.88;;;;;;;;;;10233184;27;20040;-73
2024/01/02 11:36:47;;;;;;;13.18;11.65;;;;;;;;;;10231556;27;20047;-72
2024/01/02 11:41:57;;;;;;;11.35;9.68;;;;;;;;;;10235925;27;20438;-73
2024/01/02 11:46:54;;;;;;;12.23;10.95;;;;;;;;;;10232646;27;20036;-73
2024/01/02 11:51:51;;;;;;;13.25;11.70;;;;;;;;;;10232617;27;20118;-72
2024/01/02 11:56:43;;;;;;;10.80;9.70;;;;;;;;;;10240795;27;20055;-73
2024/01/02 12:01:45;;;;;;;15.75;11.50;;;;;;;;;;10230423;27;20476;-73
2024/01/02 12:06:55;;;;;;;14.88;11.82;;;;;;;;;;10232073;27;20055;-73
2024/01/02 12:12:11;;;;;;;13.25;10.43;;;;;;;;;;10231731;27;20151;-73
2024/01/02 12:17:03;;;;;;;11.07;9.98;;;;;;;;;;10238915;27;20131;-73
2024/01/02 12:22:14;;;;;;;10.95;9.05;;;;;;;;;;10229859;27;20375;-73
2024/01/02 12:27:07;;;;;;;12.27;10.95;;;;;;;;;;10216198;27;20124;-72
2024/01/02 12:32:00;;;;;;;11.30;10.20;;;;;;;;;;10231304;27;20403;-73
2024/01/02 12:37:01;;;;;;;12.95;10.90;;;;;;;;;;10228502;27;20114;-73
2024/01/02 12:41:54;;;;;;;11.52;10.00;;;;;;;;;;10213616;27;20453;-73
2024/01/02 12:46:52;;;;;;;11.77;9.93;;;;;;;;;;10229092;27;20120;-73
2024/01/02 12:51:48;;;;;;;14.98;11.02;;;;;;;;;;10212641;27;20051;-73
2024/01/02 12:56:43;;;;;;;11.73;10.63;;;;;;;;;;10216698;27;20047;-73
2024/01/02 13:01:36;;;;;;;13.05;10.80;;;;;;;;;;10230962;27;20039;-73
2024/01/02 13:06:29;;;;;;;15.02;12.77;;;;;;;;;;10229946;27;20043;-73
2024/01/02 13:11:21;;;;;;;11.52;10.32;;;;;;;;;;10228382;27;20537;-73
2024/01/02 13:16:13;;;;;;;15.68;12.82;;;;;;;;;;10229791;27;20044;-73
2024/01/02 13:21:05;;;;;;;12.90;11.57;;;;;;;;;;10210960;27;20047;-73
2024/01/02 13:25:57;;;;;;;18.63;12.48;;;;;;;;;;10218669;27;20137;-73
2024/01/02 13:30:50;;;;;;;14.38;10.85;;;;;;;;;;10228645;27;20104;-73
2024/01/02 13:35:59;;;;;;;11.57;10.38;;;;;;;;;;10228278;27;20075;-73
2024/01/02 13:41:04;;;;;;;12.63;10.82;;;;;;;;;;10231804;27;20408;-73
2024/01/02 13:46:09;;;;;;;12.88;11.57;;;;;;;;;;10226995;27;20067;-73
2024/01/02 13:51:03;;;;;;;13.57;11.65;;;;;;;;;;10228475;27;20545;-73
2024/01/02 13:55:55;;;;;;;14.52;12.40;;;;;;;;;;10231665;27;20044;-73
2024/01/02 14:00:48;;;;;;;15.98;12.93;;;;;;;;;;10227039;27;20051;-73
2024/01/02 14:05:43;;;;;;;12.93;10.63;;;;;;;;;;10228126;27;20040;-73
2024/01/02 14:10:38;;;;;;;12.82;11.55;;;;;;;;;;10226043;27;20043;-73
2024/01/02 14:15:36;;;;;;;20.75;12.90;;;;;;;;;;10226062;27;20043;-73
2024/01/02 14:20:33;;;;;;;13.40;11.85;;;;;;;;;;10226977;27;20062;-73
2024/01/02 14:25:25;;;;;;;19.45;13.95;;;;;;;;;;10233775;27;20062;-73
2024/01/02 14:30:31;;;;;;;16.77;11.98;;;;;;;;;;10229687;27;20079;-73
2024/01/02 14:35:25;;;;;;;18.70;16.33;;;;;;;;;;10225521;27;20035;-73
2024/01/02 14:40:54;;;;;;;15.98;13.55;;;;;;;;;;10225153;27;20040;-73
2024/01/02 14:46:05;;;;;;;16.25;13.95;;;;;;;;;;10223741;28;20058;-73
2024/01/02 14:51:18;;;;;;;16.00;13.43;;;;;;;;;;10227248;28;20482;-73
2024/01/02 14:56:26;;;;;;;16.45;14.60;;;;;;;;;;10233324;27;20075;-73
2024/01/02 15:01:52;;;;;;;17.23;15.43;;;;;;;;;;10218238;27;20122;-77
2024/01/02 15:06:46;;;;;;;18.88;14.70;;;;;;;;;;10226983;27;20309;-72
2024/01/02 15:11:43;;;;;;;19.73;14.43;;;;;;;;;;10240137;27;20035;-71
2024/01/02 15:17:01;;;;;;;19.95;14.07;;;;;;;;;;10234363;27;20051;-71
2024/01/02 15:22:08;;;;;;;24.33;18.00;;;;;;;;;;10229459;27;20051;-72
2024/01/02 15:27:06;;;;;;;21.95;14.27;;;;;;;;;;10236495;27;20462;-72
2024/01/02 15:32:15;;;;;;;19.15;15.52;;;;;;;;;;10234211;27;20443;-72
2024/01/02 15:37:25;;;;;;;25.83;18.57;;;;;;;;;;10240360;27;20462;-72
2024/01/02 15:42:26;;;;;;;18.00;16.05;;;;;;;;;;10233821;27;20782;-72
2024/01/02 15:47:33;;;;;;;19.38;16.92;;;;;;;;;;10215647;27;20039;-72
2024/01/02 15:52:35;;;;;;;27.63;20.55;;;;;;;;;;10233893;27;20122;-72
2024/01/02 15:57:29;;;;;;;18.30;16.23;;;;;;;;;;10236686;27;20092;-72
2024/01/02 16:02:45;;;;;;;19.75;16.02;;;;;;;;;;10232883;27;20931;-72
2024/01/02 16:07:49;;;;;;;19.63;16.98;;;;;;;;;;10214286;27;20036;-72
2024/01/02 16:13:05;;;;;;;27.23;22.33;;;;;;;;;;10231161;27;20039;-72
2024/01/02 16:18:09;;;;;;;27.75;21.38;;;;;;;;;;10231882;27;20047;-73
2024/01/02 16:23:05;;;;;;;30.25;22.40;;;;;;;;;;10232413;27;20526;-72
2024/01/02 16:28:35;;;;;;;31.15;24.35;;;;;;;;;;10243718;27;20139;-72
2024/01/02 16:33:56;;;;;;;36.17;27.77;;;;;;;;;;10231382;27;20057;-73
2024/01/02 16:39:06;;;;;;;29.00;24.38;;;;;;;;;;10230659;27;20381;-72
2024/01/02 16:43:58;;;;;;;26.85;22.80;;;;;;;;;;10211752;27;20046;-72
2024/01/02 16:48:51;;;;;;;28.75;25.65;;;;;;;;;;10212699;27;20096;-72
2024/01/02 16:53:43;;;;;;;31.90;24.38;;;;;;;;;;10232991;27;20035;-72
2024/01/02 16:58:36;;;;;;;29.58;22.88;;;;;;;;;;10213123;27;20044;-72
2024/01/02 17:03:35;;;;;;;39.40;29.67;;;;;;;;;;10214135;27;20122;-72
2024/01/02 17:08:27;;;;;;;31.90;26.20;;;;;;;;;;10230086;27;20466;-73
2024/01/02 17:13:22;;;;;;;30.98;25.60;;;;;;;;;;10229400;27;20122;-73
2024/01/02 17:18:16;;;;;;;39.15;31.15;;;;;;;;;;10229111;27;20092;-73
2024/01/02 17:23:10;;;;;;;42.67;30.58;;;;;;;;;;10237257;27;20443;-73
2024/01/02 17:28:04;;;;;;;34.47;27.33;;;;;;;;;;10235615;27;20044;-73
2024/01/02 17:32:58;;;;;;;38.13;28.63;;;;;;;;;;10230135;27;20081;-73
2024/01/02 17:37:51;;;;;;;36.88;24.02;;;;;;;;;;10229304;27;20058;-74
2024/01/02 17:42:44;;;;;;;71.20;32.17;;;;;;;;;;10226301;27;20537;-73
2024/01/02 17:47:37;;;;;;;54.92;31.33;;;;;;;;;;10228768;27;20047;-73
2024/01/02 17:52:29;;;;;;;82.07;38.83;;;;;;;;;;10228241;27;20066;-73
2024/01/02 17:57:25;;;;;;;56.60;30.10;;;;;;;;;;10209820;27;20072;-73
2024/01/02 18:02:40;;;;;;;55.63;35.35;;;;;;;;;;10226016;27;20075;-73
2024/01/02 18:07:49;;;;;;;54.78;36.08;;;;;;;;;;10227972;27;20477;-73
2024/01/02 18:13:05;;;;;;;70.32;34.58;;;;;;;;;;10228621;27;20950;-73
2024/01/02 18:18:21;;;;;;;41.15;30.42;;;;;;;;;;10227369;27;20486;-73
2024/01/02 18:23:22;;;;;;;63.95;34.45;;;;;;;;;;10225370;27;20134;-73
2024/01/02 18:28:27;;;;;;;56.30;34.72;;;;;;;;;;10231380;27;20142;-73
2024/01/02 18:33:32;;;;;;;43.08;31.55;;;;;;;;;;10228187;27;20058;-72
2024/01/02 18:38:39;;;;;;;34.70;26.35;;;;;;;;;;10224928;27;20676;-73
2024/01/02 18:43:38;;;;;;;38.15;25.58;;;;;;;;;;10231377;28;20351;-72
2024/01/02 18:48:30;;;;;;;;;;;;;;;;;;10225917;28;20040;-73
2024/01/02 18:53:36;;;;;;;37.25;25.85;;;;;;;;;;10225422;28;19920;-73
2024/01/02 18:58:29;;;;;;;42.50;27.95;;;;;;;;;;10219082;28;20057;-72
2024/01/02 19:03:21;;;;;;;44.80;28.45;;;;;;;;;;10228265;28;20043;-72
2024/01/02 19:08:16;;;;;;;40.00;29.13;;;;;;;;;;10225567;28;20035;-72
2024/01/02 19:13:10;;;;;;;39.15;26.20;;;;;;;;;;10231460;28;20032;-72
2024/01/02 19:18:04;;;;;;;37.65;29.02;;;;;;;;;;10226181;28;20410;-72
2024/01/02 19:23:01;;;;;;;39.55;28.70;;;;;;;;;;10234234;28;20142;-73
2024/01/02 19:27:59;;;;;;;36.22;25.80;;;;;;;;;;10225362;28;20362;-73
2024/01/02 19:32:51;;;;;;;45.90;32.65;;;;;;;;;;10226742;28;20048;-72
2024/01/02 19:37:43;;;;;;;53.65;29.60;;;;;;;;;;10226846;28;20079;-73
2024/01/02 19:42:35;;;;;;;48.67;34.17;;;;;;;;;;10230790;27;20078;-71
2024/01/02 19:47:27;;;;;;;41.28;28.35;;;;;;;;;;10233960;27;20051;-71
2024/01/02 19:52:19;;;;;;;46.22;33.38;;;;;;;;;;10234357;27;20185;-71
2024/01/02 19:57:14;;;;;;;38.83;28.00;;;;;;;;;;10262412;27;20055;-72
2024/01/02 20:02:07;;;;;;;56.78;32.03;;;;;;;;;;10268690;27;20059;-73
2024/01/02 20:07:09;;;;;;;63.70;37.13;;;;;;;;;;10265163;27;20038;-73
2024/01/02 20:12:01;;;;;;;61.28;39.97;;;;;;;;;;10264138;27;20043;-73
2024/01/02 20:16:53;;;;;;;63.53;31.88;;;;;;;;;;10267858;27;20054;-73
2024/01/02 20:21:45;;;;;;;47.20;30.70;;;;;;;;;;10261905;27;20039;-72
2024/01/02 20:26:37;;;;;;;42.33;30.45;;;;;;;;;;10269374;27;20155;-73
2024/01/02 20:32:02;;;;;;;37.72;26.73;;;;;;;;;;10269733;27;20552;-73
2024/01/02 20:36:54;;;;;;;43.80;25.77;;;;;;;;;;10232174;27;20039;-73
2024/01/02 20:42:01;;;;;;;45.13;33.05;;;;;;;;;;10254147;27;20109;-73
2024/01/02 20:46:53;;;;;;;48.53;28.80;;;;;;;;;;10243809;27;20040;-72
2024/01/02 20:51:46;;;;;;;36.63;26.25;;;;;;;;;;10243301;27;20080;-73
2024/01/02 20:56:41;;;;;;;42.67;29.52;;;;;;;;;;10254431;27;20489;-73
2024/01/02 21:01:34;;;;;;;41.58;29.90;;;;;;;;;;10249837;27;20125;-73
2024/01/02 21:06:33;;;;;;;39.03;28.52;;;;;;;;;;10257384;27;20035;-72
2024/01/02 21:11:25;;;;;;;52.30;32.45;;;;;;;;;;10233478;27;20040;-74
2024/01/02 21:16:20;;;;;;;49.55;31.95;;;;;;;;;;10252218;27;20040;-73
2024/01/02 21:21:28;;;;;;;48.05;30.88;;;;;;;;;;10255124;27;20043;-73
2024/01/02 21:26:21;;;;;;;41.37;30.80;;;;;;;;;;10267578;27;20096;-73
2024/01/02 21:31:13;;;;;;;47.25;32.53;;;;;;;;;;10268493;27;20462;-73
2024/01/02 21:36:06;;;;;;;36.58;27.52;;;;;;;;;;10268384;27;20096;-73
2024/01/02 21:41:11;;;;;;;35.13;25.70;;;;;;;;;;10240476;27;20039;-73
2024/01/02 21:46:21;;;;;;;36.10;27.77;;;;;;;;;;10257189;27;20046;-72
2024/01/02 21:51:20;;;;;;;32.17;24.08;;;;;;;;;;10254050;27;20373;-72
2024/01/02 21:56:14;;;;;;;;;;;;;;;;;;10245118;27;20047;-73
2024/01/02 22:01:10;;;;;;;30.70;24.13;;;;;;;;;;10247357;27;19919;-73
2024/01/02 22:06:02;;;;;;;39.97;30.85;;;;;;;;;;10266305;27;20047;-73
2024/01/02 22:10:54;;;;;;;49.38;33.30;;;;;;;;;;10266814;27;20430;-73
2024/01/02 22:15:46;;;;;;;46.35;30.75;;;;;;;;;;10266671;27;20047;-73
2024/01/02 22:20:38;;;;;;;49.83;32.35;;;;;;;;;;10266790;27;20442;-72
2024/01/02 22:25:38;;;;;;;46.63;31.48;;;;;;;;;;10266898;27;20043;-73
2024/01/02 22:30:31;;;;;;;47.67;31.42;;;;;;;;;;10265641;27;20363;-73
2024/01/02 22:35:24;;;;;;;46.78;32.55;;;;;;;;;;10266745;27;20040;-72
2024/01/02 22:40:40;;;;;;;39.53;25.98;;;;;;;;;;10255665;27;20035;-73
2024/01/02 22:45:32;;;;;;;42.38;26.98;;;;;;;;;;10266242;27;20039;-72
2024/01/02 22:50:24;;;;;;;38.08;28.05;;;;;;;;;;10265772;28;20049;-73
2024/01/02 22:55:16;;;;;;;42.50;31.13;;;;;;;;;;10265929;28;20497;-73
2024/01/02 23:00:16;;;;;;;44.65;26.98;;;;;;;;;;10266005;28;20092;-72
2024/01/02 23:05:08;;;;;;;37.92;28.25;;;;;;;;;;10265343;28;20063;-72
2024/01/02 23:10:00;;;;;;;35.38;27.30;;;;;;;;;;10264932;28;20073;-72
2024/01/02 23:14:56;;;;;;;39.42;26.63;;;;;;;;;;10267750;27;20055;-72
2024/01/02 23:19:48;;;;;;;38.67;25.80;;;;;;;;;;10259521;27;20126;-73
2024/01/02 23:24:40;;;;;;;38.97;27.45;;;;;;;;;;10255796;27;20065;-73
2024/01/02 23:29:33;;;;;;;38.95;27.75;;;;;;;;;;10255846;27;20047;-72
2024/01/02 23:34:43;;;;;;;42.42;31.08;;;;;;;;;;10273078;27;20035;-72
2024/01/02 23:39:35;;;;;;;37.47;26.75;;;;;;;;;;10268409;27;20044;-72
2024/01/02 23:44:28;;;;;;;34.90;27.65;;;;;;;;;;10234244;27;20069;-72
2024/01/02 23:49:19;;;;;;;45.65;29.70;;;;;;;;;;10233832;27;20039;-72
2024/01/02 23:54:45;;;;;;;34.30;27.48;;;;;;;;;;10233984;27;20072;-72
2024/01/02 23:59:38;;;;;;;34.13;25.80;;;;;;;;;;10234581;27;20096;-73
